Terminal Aerodrome Forecast
Issued by NWS Bismarck, ND

Home | Current Version | Previous Version | Graphics & Text | Print | Product List | Glossary On
Versions: 1 2 3 4 5 6 7 8 9 10 11 12 13 14 15
000
FTUS43 KBIS 212300
TAFISN
TAF
KISN 212332Z 2200/2224 33004KT P6SM SKC
     FM220500 12006KT P6SM SKC
     FM221500 13013KT P6SM SCT250
     FM221900 13019G28KT P6SM SCT250=

USA.gov is the U.S. government's official web portal to all federal, state and local government web resources and services.